sensor_id;sensor_type;location;lat;lon;timestamp;pressure;altitude;pressure_sealevel;temperature;humidity
40918;BME280;26644;50.248;19.032;2023-05-12T00:01:31;98259.13;;;11.98;48.12
40918;BME280;26644;50.248;19.032;2023-05-12T00:04:37;98260.56;;;11.90;48.17
40918;BME280;26644;50.248;19.032;2023-05-12T00:07:41;98260.59;;;11.85;48.70
40918;BME280;26644;50.248;19.032;2023-05-12T00:10:49;98253.28;;;11.75;48.53
40918;BME280;26644;50.248;19.032;2023-05-12T00:13:54;98256.59;;;11.77;48.86
40918;BME280;26644;50.248;19.032;2023-05-12T00:16:59;98249.78;;;11.69;49.13
40918;BME280;26644;50.248;19.032;2023-05-12T00:20:05;98255.28;;;11.69;49.14
40918;BME280;26644;50.248;19.032;2023-05-12T00:23:10;98256.97;;;11.65;49.64
40918;BME280;26644;50.248;19.032;2023-05-12T00:26:17;98263.63;;;11.59;49.69
40918;BME280;26644;50.248;19.032;2023-05-12T00:29:23;98262.28;;;11.56;50.10
40918;BME280;26644;50.248;19.032;2023-05-12T00:32:28;98260.69;;;11.50;50.55
40918;BME280;26644;50.248;19.032;2023-05-12T00:35:33;98266.22;;;11.45;50.50
40918;BME280;26644;50.248;19.032;2023-05-12T00:38:38;98263.31;;;11.36;51.43
40918;BME280;26644;50.248;19.032;2023-05-12T00:41:45;98264.44;;;11.30;51.72
40918;BME280;26644;50.248;19.032;2023-05-12T00:44:50;98253.28;;;11.21;51.81
40918;BME280;26644;50.248;19.032;2023-05-12T00:47:56;98258.22;;;11.19;52.61
40918;BME280;26644;50.248;19.032;2023-05-12T00:51:02;98262.13;;;11.13;52.92
40918;BME280;26644;50.248;19.032;2023-05-12T00:54:08;98262.16;;;11.08;52.75
40918;BME280;26644;50.248;19.032;2023-05-12T00:57:15;98262.22;;;11.03;51.94
40918;BME280;26644;50.248;19.032;2023-05-12T01:00:22;98246.91;;;10.91;52.14
40918;BME280;26644;50.248;19.032;2023-05-12T01:03:28;98259.03;;;10.85;51.93
40918;BME280;26644;50.248;19.032;2023-05-12T01:06:39;98266.16;;;10.86;52.06
40918;BME280;26644;50.248;19.032;2023-05-12T01:09:53;98257.72;;;10.77;52.37
40918;BME280;26644;50.248;19.032;2023-05-12T01:13:02;98273.41;;;10.72;52.24
40918;BME280;26644;50.248;19.032;2023-05-12T01:16:12;98267.13;;;10.66;52.62
40918;BME280;26644;50.248;19.032;2023-05-12T01:19:33;98253.72;;;10.54;53.17
40918;BME280;26644;50.248;19.032;2023-05-12T01:22:47;98272.66;;;10.61;53.08
40918;BME280;26644;50.248;19.032;2023-05-12T01:25:54;98270.72;;;10.61;53.08
40918;BME280;26644;50.248;19.032;2023-05-12T01:29:03;98271.00;;;10.60;52.98
40918;BME280;26644;50.248;19.032;2023-05-12T01:32:11;98271.28;;;10.58;52.89
40918;BME280;26644;50.248;19.032;2023-05-12T01:35:17;98273.78;;;10.55;53.02
40918;BME280;26644;50.248;19.032;2023-05-12T01:38:31;98280.34;;;10.54;53.05
40918;BME280;26644;50.248;19.032;2023-05-12T01:41:36;98272.94;;;10.49;53.22
40918;BME280;26644;50.248;19.032;2023-05-12T01:44:44;98274.63;;;10.45;53.41
40918;BME280;26644;50.248;19.032;2023-05-12T01:47:49;98275.72;;;10.44;53.47
40918;BME280;26644;50.248;19.032;2023-05-12T01:50:54;98280.72;;;10.37;53.46
40918;BME280;26644;50.248;19.032;2023-05-12T01:54:02;98267.28;;;10.30;53.51
40918;BME280;26644;50.248;19.032;2023-05-12T01:57:11;98284.28;;;10.32;53.57
40918;BME280;26644;50.248;19.032;2023-05-12T02:00:19;98262.91;;;10.24;53.66
40918;BME280;26644;50.248;19.032;2023-05-12T02:03:28;98278.00;;;10.26;53.59
40918;BME280;26644;50.248;19.032;2023-05-12T02:06:32;98272.00;;;10.19;53.72
40918;BME280;26644;50.248;19.032;2023-05-12T02:09:38;98277.75;;;10.18;53.88
40918;BME280;26644;50.248;19.032;2023-05-12T02:12:42;98273.94;;;10.14;54.05
40918;BME280;26644;50.248;19.032;2023-05-12T02:15:50;98269.56;;;10.13;54.00
40918;BME280;26644;50.248;19.032;2023-05-12T02:18:55;98278.91;;;10.11;54.25
40918;BME280;26644;50.248;19.032;2023-05-12T02:22:00;98269.59;;;10.07;54.24
40918;BME280;26644;50.248;19.032;2023-05-12T02:25:05;98273.72;;;10.05;54.44
40918;BME280;26644;50.248;19.032;2023-05-12T02:28:12;98267.16;;;10.01;54.51
40918;BME280;26644;50.248;19.032;2023-05-12T02:31:19;98269.91;;;9.95;54.81
40918;BME280;26644;50.248;19.032;2023-05-12T02:34:24;98269.13;;;9.85;55.03
40918;BME280;26644;50.248;19.032;2023-05-12T02:37:30;98271.31;;;9.83;55.17
40918;BME280;26644;50.248;19.032;2023-05-12T02:40:36;98283.66;;;9.80;55.14
40918;BME280;26644;50.248;19.032;2023-05-12T02:43:41;98278.72;;;9.77;55.30
40918;BME280;26644;50.248;19.032;2023-05-12T02:46:49;98280.09;;;9.74;55.37
40918;BME280;26644;50.248;19.032;2023-05-12T02:49:54;98274.06;;;9.72;55.42
40918;BME280;26644;50.248;19.032;2023-05-12T02:52:59;98275.44;;;9.70;55.67
40918;BME280;26644;50.248;19.032;2023-05-12T02:56:04;98270.81;;;9.65;55.59
40918;BME280;26644;50.248;19.032;2023-05-12T02:59:10;98268.88;;;9.60;55.87
40918;BME280;26644;50.248;19.032;2023-05-12T03:02:17;98275.47;;;9.59;56.04
40918;BME280;26644;50.248;19.032;2023-05-12T03:05:22;98270.53;;;9.56;55.99
40918;BME280;26644;50.248;19.032;2023-05-12T03:08:27;98263.69;;;9.54;56.32
40918;BME280;26644;50.248;19.032;2023-05-12T03:11:32;98272.47;;;9.56;56.11
40918;BME280;26644;50.248;19.032;2023-05-12T03:14:36;98270.53;;;9.56;56.11
40918;BME280;26644;50.248;19.032;2023-05-12T03:17:44;98275.72;;;9.58;56.13
40918;BME280;26644;50.248;19.032;2023-05-12T03:20:49;98273.84;;;9.58;56.50
40918;BME280;26644;50.248;19.032;2023-05-12T03:23:57;98280.97;;;9.59;56.13
40918;BME280;26644;50.248;19.032;2023-05-12T03:27:02;98280.97;;;9.59;56.28
40918;BME280;26644;50.248;19.032;2023-05-12T03:30:08;98266.41;;;9.59;56.06
40918;BME280;26644;50.248;19.032;2023-05-12T03:33:16;98269.44;;;9.68;56.18
40918;BME280;26644;50.248;19.032;2023-05-12T03:36:22;98278.44;;;9.78;56.09
40918;BME280;26644;50.248;19.032;2023-05-12T03:39:26;98276.50;;;9.89;55.90
40918;BME280;26644;50.248;19.032;2023-05-12T03:42:32;98283.59;;;10.01;55.32
40918;BME280;26644;50.248;19.032;2023-05-12T03:45:36;98282.16;;;10.19;54.92
40918;BME280;26644;50.248;19.032;2023-05-12T03:48:44;98279.53;;;10.48;54.50
40918;BME280;26644;50.248;19.032;2023-05-12T03:51:49;98285.13;;;10.83;53.57
40918;BME280;26644;50.248;19.032;2023-05-12T03:54:54;98289.00;;;11.21;52.63
40918;BME280;26644;50.248;19.032;2023-05-12T03:57:59;98285.09;;;11.57;51.42
40918;BME280;26644;50.248;19.032;2023-05-12T04:01:04;98284.69;;;11.98;50.16
40918;BME280;26644;50.248;19.032;2023-05-12T04:04:11;98285.41;;;12.33;49.52
40918;BME280;26644;50.248;19.032;2023-05-12T04:07:16;98290.19;;;12.66;48.93
40918;BME280;26644;50.248;19.032;2023-05-12T04:10:21;98287.59;;;13.13;48.08
40918;BME280;26644;50.248;19.032;2023-05-12T04:13:28;98301.22;;;13.56;46.29
40918;BME280;26644;50.248;19.032;2023-05-12T04:16:33;98292.91;;;13.75;45.52
40918;BME280;26644;50.248;19.032;2023-05-12T04:19:41;98293.97;;;14.07;45.00
40918;BME280;26644;50.248;19.032;2023-05-12T04:22:46;98312.91;;;14.41;44.38
40918;BME280;26644;50.248;19.032;2023-05-12T04:25:52;98302.88;;;14.59;43.50
40918;BME280;26644;50.248;19.032;2023-05-12T04:28:56;98310.28;;;14.87;43.19
40918;BME280;26644;50.248;19.032;2023-05-12T04:32:02;98313.06;;;15.09;42.55
40918;BME280;26644;50.248;19.032;2023-05-12T04:35:11;98315.50;;;15.25;42.02
40918;BME280;26644;50.248;19.032;2023-05-12T04:38:16;98313.41;;;15.31;42.12
40918;BME280;26644;50.248;19.032;2023-05-12T04:41:21;98308.75;;;15.40;41.85
40918;BME280;26644;50.248;19.032;2023-05-12T04:44:27;98320.16;;;15.61;41.63
40918;BME280;26644;50.248;19.032;2023-05-12T04:47:31;98318.53;;;15.60;41.45
40918;BME280;26644;50.248;19.032;2023-05-12T04:50:39;98313.19;;;15.64;41.43
40918;BME280;26644;50.248;19.032;2023-05-12T04:53:44;98322.25;;;15.55;41.51
40918;BME280;26644;50.248;19.032;2023-05-12T04:56:49;98314.09;;;15.36;41.68
40918;BME280;26644;50.248;19.032;2023-05-12T04:59:54;98317.88;;;14.81;42.51
40918;BME280;26644;50.248;19.032;2023-05-12T05:03:00;98320.09;;;14.42;43.66
40918;BME280;26644;50.248;19.032;2023-05-12T05:06:08;98320.22;;;14.18;44.64
40918;BME280;26644;50.248;19.032;2023-05-12T05:09:13;98322.28;;;13.99;44.60
40918;BME280;26644;50.248;19.032;2023-05-12T05:12:18;98322.38;;;13.93;45.10
40918;BME280;26644;50.248;19.032;2023-05-12T05:15:24;98325.34;;;14.11;44.77
40918;BME280;26644;50.248;19.032;2023-05-12T05:18:28;98326.69;;;14.55;44.42
40918;BME280;26644;50.248;19.032;2023-05-12T05:21:36;98326.63;;;15.34;42.64
40918;BME280;26644;50.248;19.032;2023-05-12T05:24:41;98322.59;;;15.85;41.60
40918;BME280;26644;50.248;19.032;2023-05-12T05:27:46;98329.16;;;16.30;40.85
40918;BME280;26644;50.248;19.032;2023-05-12T05:30:52;98329.34;;;16.91;39.79
40918;BME280;26644;50.248;19.032;2023-05-12T05:33:57;98337.88;;;17.65;38.85
40918;BME280;26644;50.248;19.032;2023-05-12T05:37:05;98339.53;;;18.13;37.28
40918;BME280;26644;50.248;19.032;2023-05-12T05:40:12;98336.94;;;18.55;36.71
40918;BME280;26644;50.248;19.032;2023-05-12T05:43:16;98351.91;;;18.93;36.04
40918;BME280;26644;50.248;19.032;2023-05-12T05:46:22;98340.25;;;19.30;35.32
40918;BME280;26644;50.248;19.032;2023-05-12T05:49:26;98342.78;;;19.77;35.11
40918;BME280;26644;50.248;19.032;2023-05-12T05:52:36;98350.81;;;20.24;34.46
40918;BME280;26644;50.248;19.032;2023-05-12T05:55:42;98355.59;;;20.73;34.16
40918;BME280;26644;50.248;19.032;2023-05-12T05:58:47;98354.81;;;21.38;32.98
40918;BME280;26644;50.248;19.032;2023-05-12T06:01:52;98349.72;;;21.97;32.08
40918;BME280;26644;50.248;19.032;2023-05-12T06:04:57;98357.91;;;22.50;31.48
40918;BME280;26644;50.248;19.032;2023-05-12T06:08:05;98360.78;;;22.86;30.41
40918;BME280;26644;50.248;19.032;2023-05-12T06:11:12;98357.66;;;22.91;30.32
40918;BME280;26644;50.248;19.032;2023-05-12T06:14:16;98373.38;;;22.96;30.45
40918;BME280;26644;50.248;19.032;2023-05-12T06:17:22;98373.88;;;23.17;29.65
40918;BME280;26644;50.248;19.032;2023-05-12T06:20:27;98372.53;;;23.11;29.58
40918;BME280;26644;50.248;19.032;2023-05-12T06:23:35;98367.16;;;23.38;29.79
40918;BME280;26644;50.248;19.032;2023-05-12T06:26:39;98373.56;;;23.38;29.15
40918;BME280;26644;50.248;19.032;2023-05-12T06:29:45;98377.03;;;23.51;29.29
40918;BME280;26644;50.248;19.032;2023-05-12T06:32:49;98373.66;;;23.42;28.92
40918;BME280;26644;50.248;19.032;2023-05-12T06:35:54;98379.53;;;23.37;29.26
40918;BME280;26644;50.248;19.032;2023-05-12T06:39:02;98360.22;;;23.32;29.45
40918;BME280;26644;50.248;19.032;2023-05-12T06:42:08;98366.94;;;23.47;29.82
40918;BME280;26644;50.248;19.032;2023-05-12T06:45:16;98369.31;;;24.03;28.68
40918;BME280;26644;50.248;19.032;2023-05-12T06:48:21;98372.31;;;24.61;28.08
40918;BME280;26644;50.248;19.032;2023-05-12T06:51:31;98371.13;;;25.12;27.49
40918;BME280;26644;50.248;19.032;2023-05-12T06:54:40;98368.66;;;25.33;27.80
40918;BME280;26644;50.248;19.032;2023-05-12T06:57:44;98374.66;;;25.62;27.24
40918;BME280;26644;50.248;19.032;2023-05-12T07:00:52;98373.63;;;26.12;26.53
40918;BME280;26644;50.248;19.032;2023-05-12T07:03:57;98376.94;;;26.21;26.39
40918;BME280;26644;50.248;19.032;2023-05-12T07:07:03;98374.63;;;26.27;25.73
40918;BME280;26644;50.248;19.032;2023-05-12T07:10:11;98378.22;;;26.27;26.16
40918;BME280;26644;50.248;19.032;2023-05-12T07:13:16;98373.88;;;26.37;25.89
40918;BME280;26644;50.248;19.032;2023-05-12T07:16:20;98377.28;;;26.53;25.88
40918;BME280;26644;50.248;19.032;2023-05-12T07:19:26;98369.09;;;26.37;25.37
40918;BME280;26644;50.248;19.032;2023-05-12T07:22:30;98374.06;;;26.55;25.47
40918;BME280;26644;50.248;19.032;2023-05-12T07:25:38;98379.53;;;26.82;25.08
40918;BME280;26644;50.248;19.032;2023-05-12T07:28:42;98361.00;;;26.77;25.27
40918;BME280;26644;50.248;19.032;2023-05-12T07:31:48;98362.84;;;27.11;24.90
40918;BME280;26644;50.248;19.032;2023-05-12T07:34:52;98368.28;;;27.41;24.67
40918;BME280;26644;50.248;19.032;2023-05-12T07:37:57;98368.22;;;27.30;24.34
40918;BME280;26644;50.248;19.032;2023-05-12T07:41:06;98367.72;;;27.17;24.69
40918;BME280;26644;50.248;19.032;2023-05-12T07:44:11;98375.28;;;27.06;24.85
40918;BME280;26644;50.248;19.032;2023-05-12T07:47:16;98373.25;;;27.03;24.70
40918;BME280;26644;50.248;19.032;2023-05-12T07:50:21;98364.84;;;27.06;25.04
40918;BME280;26644;50.248;19.032;2023-05-12T07:53:26;98379.47;;;26.71;24.58
40918;BME280;26644;50.248;19.032;2023-05-12T07:56:33;98372.00;;;26.48;25.07
40918;BME280;26644;50.248;19.032;2023-05-12T07:59:38;98358.63;;;26.38;25.00
40918;BME280;26644;50.248;19.032;2023-05-12T08:02:43;98364.78;;;26.10;25.23
40918;BME280;26644;50.248;19.032;2023-05-12T08:05:48;98366.28;;;26.00;25.11
40918;BME280;26644;50.248;19.032;2023-05-12T08:08:53;98364.34;;;25.73;25.63
40918;BME280;26644;50.248;19.032;2023-05-12T08:12:01;98365.88;;;25.98;25.07
40918;BME280;26644;50.248;19.032;2023-05-12T08:15:07;98377.38;;;26.23;25.33
40918;BME280;26644;50.248;19.032;2023-05-12T08:18:12;98374.03;;;26.10;25.13
40918;BME280;26644;50.248;19.032;2023-05-12T08:21:17;98368.63;;;26.32;25.58
40918;BME280;26644;50.248;19.032;2023-05-12T08:24:22;98365.41;;;26.75;24.59
40918;BME280;26644;50.248;19.032;2023-05-12T08:27:30;98383.66;;;26.95;24.32
40918;BME280;26644;50.248;19.032;2023-05-12T08:30:35;98372.47;;;27.06;24.37
40918;BME280;26644;50.248;19.032;2023-05-12T08:33:40;98373.09;;;27.41;24.23
40918;BME280;26644;50.248;19.032;2023-05-12T08:36:45;98381.97;;;27.43;24.11
40918;BME280;26644;50.248;19.032;2023-05-12T08:39:51;98366.03;;;27.05;24.14
40918;BME280;26644;50.248;19.032;2023-05-12T08:43:06;98374.81;;;26.97;24.00
40918;BME280;26644;50.248;19.032;2023-05-12T08:46:17;98370.69;;;26.83;24.39
40918;BME280;26644;50.248;19.032;2023-05-12T08:49:25;98370.22;;;26.74;24.30
40918;BME280;26644;50.248;19.032;2023-05-12T08:52:35;98377.97;;;26.43;23.96
40918;BME280;26644;50.248;19.032;2023-05-12T08:55:41;98370.69;;;26.35;24.46
40918;BME280;26644;50.248;19.032;2023-05-12T08:58:50;98385.06;;;26.67;23.97
40918;BME280;26644;50.248;19.032;2023-05-12T09:01:55;98383.16;;;26.37;23.97
40918;BME280;26644;50.248;19.032;2023-05-12T09:05:05;98382.56;;;26.17;24.36
40918;BME280;26644;50.248;19.032;2023-05-12T09:08:11;98369.59;;;26.09;24.52
40918;BME280;26644;50.248;19.032;2023-05-12T09:11:19;98352.56;;;25.61;24.65
40918;BME280;26644;50.248;19.032;2023-05-12T09:14:30;98368.94;;;25.28;25.24
40918;BME280;26644;50.248;19.032;2023-05-12T09:17:40;98376.06;;;25.18;25.05
40918;BME280;26644;50.248;19.032;2023-05-12T09:20:44;98375.91;;;25.07;25.55
40918;BME280;26644;50.248;19.032;2023-05-12T09:23:54;98369.91;;;25.09;25.63
40918;BME280;26644;50.248;19.032;2023-05-12T09:27:00;98365.72;;;24.72;25.67
40918;BME280;26644;50.248;19.032;2023-05-12T09:30:08;98372.31;;;24.61;26.33
40918;BME280;26644;50.248;19.032;2023-05-12T09:33:13;98371.97;;;24.62;26.72
40918;BME280;26644;50.248;19.032;2023-05-12T09:36:20;98372.94;;;24.04;26.55
40918;BME280;26644;50.248;19.032;2023-05-12T09:39:26;98354.09;;;23.85;26.71
40918;BME280;26644;50.248;19.032;2023-05-12T09:42:33;98370.03;;;23.81;26.50
40918;BME280;26644;50.248;19.032;2023-05-12T09:45:41;98364.41;;;24.43;26.31
40918;BME280;26644;50.248;19.032;2023-05-12T09:48:48;98367.13;;;24.39;25.05
40918;BME280;26644;50.248;19.032;2023-05-12T09:51:55;98363.72;;;24.27;23.62
40918;BME280;26644;50.248;19.032;2023-05-12T09:55:09;98365.91;;;24.14;23.88
40918;BME280;26644;50.248;19.032;2023-05-12T09:58:17;98376.84;;;24.65;24.03
40918;BME280;26644;50.248;19.032;2023-05-12T10:01:25;98370.09;;;24.70;24.27
40918;BME280;26644;50.248;19.032;2023-05-12T10:04:35;98360.50;;;24.98;23.75
40918;BME280;26644;50.248;19.032;2023-05-12T10:07:50;98359.50;;;25.40;23.25
40918;BME280;26644;50.248;19.032;2023-05-12T10:11:01;98365.28;;;25.85;22.66
40918;BME280;26644;50.248;19.032;2023-05-12T10:14:09;98361.63;;;25.81;22.49
40918;BME280;26644;50.248;19.032;2023-05-12T10:17:18;98365.38;;;25.58;22.80
40918;BME280;26644;50.248;19.032;2023-05-12T10:20:26;98373.47;;;25.63;22.42
40918;BME280;26644;50.248;19.032;2023-05-12T10:23:31;98372.03;;;25.46;21.93
40918;BME280;26644;50.248;19.032;2023-05-12T10:26:41;98373.41;;;25.60;21.32
40918;BME280;26644;50.248;19.032;2023-05-12T10:29:47;98378.59;;;25.00;21.81
40918;BME280;26644;50.248;19.032;2023-05-12T10:32:56;98363.44;;;24.78;22.71
40918;BME280;26644;50.248;19.032;2023-05-12T10:36:02;98355.22;;;24.46;23.54
40918;BME280;26644;50.248;19.032;2023-05-12T10:39:07;98356.75;;;24.40;23.75
40918;BME280;26644;50.248;19.032;2023-05-12T10:42:16;98362.22;;;24.33;23.94
40918;BME280;26644;50.248;19.032;2023-05-12T10:45:26;98355.59;;;24.45;24.11
40918;BME280;26644;50.248;19.032;2023-05-12T10:48:33;98356.53;;;24.06;24.84
40918;BME280;26644;50.248;19.032;2023-05-12T10:51:49;98356.41;;;23.99;24.55
40918;BME280;26644;50.248;19.032;2023-05-12T10:54:59;98352.34;;;23.77;25.71
40918;BME280;26644;50.248;19.032;2023-05-12T10:58:09;98338.88;;;23.63;25.04
40918;BME280;26644;50.248;19.032;2023-05-12T11:01:23;98353.16;;;23.57;24.41
40918;BME280;26644;50.248;19.032;2023-05-12T11:04:39;98356.69;;;23.35;25.00
40918;BME280;26644;50.248;19.032;2023-05-12T11:07:48;98355.28;;;23.25;25.55
40918;BME280;26644;50.248;19.032;2023-05-12T11:10:54;98346.13;;;22.93;26.63
40918;BME280;26644;50.248;19.032;2023-05-12T11:13:59;98353.28;;;22.74;27.26
40918;BME280;26644;50.248;19.032;2023-05-12T11:17:05;98348.75;;;22.37;27.67
40918;BME280;26644;50.248;19.032;2023-05-12T11:20:21;98339.00;;;21.71;28.63
40918;BME280;26644;50.248;19.032;2023-05-12T11:23:27;98352.53;;;21.56;28.87
40918;BME280;26644;50.248;19.032;2023-05-12T11:26:32;98343.38;;;21.43;29.05
40918;BME280;26644;50.248;19.032;2023-05-12T11:29:38;98352.66;;;21.19;29.67
40918;BME280;26644;50.248;19.032;2023-05-12T11:32:43;98359.66;;;21.01;29.43
40918;BME280;26644;50.248;19.032;2023-05-12T11:35:51;98346.28;;;20.69;29.62
40918;BME280;26644;50.248;19.032;2023-05-12T11:38:55;98359.31;;;20.65;29.54
40918;BME280;26644;50.248;19.032;2023-05-12T11:42:02;98353.25;;;20.51;29.31
40918;BME280;26644;50.248;19.032;2023-05-12T11:45:18;98354.91;;;20.52;29.79
40918;BME280;26644;50.248;19.032;2023-05-12T11:48:32;98356.84;;;20.39;28.90
40918;BME280;26644;50.248;19.032;2023-05-12T11:51:43;98363.25;;;20.39;28.27
40918;BME280;26644;50.248;19.032;2023-05-12T11:54:49;98357.47;;;20.45;28.30
40918;BME280;26644;50.248;19.032;2023-05-12T11:57:59;98365.00;;;20.69;28.55
40918;BME280;26644;50.248;19.032;2023-05-12T12:01:08;98373.03;;;20.70;28.89
40918;BME280;26644;50.248;19.032;2023-05-12T12:04:13;98364.09;;;20.65;29.53
40918;BME280;26644;50.248;19.032;2023-05-12T12:07:30;98384.41;;;20.65;29.14
40918;BME280;26644;50.248;19.032;2023-05-12T12:10:35;98363.75;;;20.54;29.46
40918;BME280;26644;50.248;19.032;2023-05-12T12:13:47;98362.47;;;20.51;29.74
40918;BME280;26644;50.248;19.032;2023-05-12T12:16:56;98366.53;;;20.54;30.35
40918;BME280;26644;50.248;19.032;2023-05-12T12:20:02;98381.06;;;20.59;30.30
40918;BME280;26644;50.248;19.032;2023-05-12T12:23:09;98366.00;;;20.27;29.89
40918;BME280;26644;50.248;19.032;2023-05-12T12:26:15;98369.94;;;20.14;30.25
40918;BME280;26644;50.248;19.032;2023-05-12T12:29:20;98360.91;;;20.17;30.17
40918;BME280;26644;50.248;19.032;2023-05-12T12:32:27;98361.31;;;20.06;30.39
40918;BME280;26644;50.248;19.032;2023-05-12T12:35:31;98371.41;;;20.11;31.09
40918;BME280;26644;50.248;19.032;2023-05-12T12:38:39;98371.41;;;20.11;30.32
40918;BME280;26644;50.248;19.032;2023-05-12T12:41:43;98380.22;;;20.01;30.06
40918;BME280;26644;50.248;19.032;2023-05-12T12:44:48;98377.56;;;19.71;30.71
40918;BME280;26644;50.248;19.032;2023-05-12T12:47:53;98375.59;;;19.71;30.89
40918;BME280;26644;50.248;19.032;2023-05-12T12:51:00;98362.00;;;19.70;30.75
40918;BME280;26644;50.248;19.032;2023-05-12T12:54:08;98370.66;;;19.35;30.82
40918;BME280;26644;50.248;19.032;2023-05-12T12:57:13;98365.81;;;19.65;30.98
40918;BME280;26644;50.248;19.032;2023-05-12T13:00:19;98360.44;;;19.81;30.42
40918;BME280;26644;50.248;19.032;2023-05-12T13:03:25;98383.22;;;19.96;30.29
40918;BME280;26644;50.248;19.032;2023-05-12T13:06:29;98377.91;;;20.03;30.32
40918;BME280;26644;50.248;19.032;2023-05-12T13:09:38;98379.38;;;19.88;30.32
40918;BME280;26644;50.248;19.032;2023-05-12T13:12:42;98373.03;;;20.00;30.08
40918;BME280;26644;50.248;19.032;2023-05-12T13:15:47;98366.81;;;20.15;30.07
40918;BME280;26644;50.248;19.032;2023-05-12T13:18:53;98353.38;;;19.96;30.20
40918;BME280;26644;50.248;19.032;2023-05-12T13:21:58;98367.00;;;20.10;30.17
40918;BME280;26644;50.248;19.032;2023-05-12T13:25:06;98362.09;;;19.95;29.64
40918;BME280;26644;50.248;19.032;2023-05-12T13:28:11;98357.44;;;19.99;29.66
40918;BME280;26644;50.248;19.032;2023-05-12T13:31:16;98372.56;;;19.76;30.03
40918;BME280;26644;50.248;19.032;2023-05-12T13:34:21;98368.00;;;19.93;29.89
40918;BME280;26644;50.248;19.032;2023-05-12T13:37:26;98370.09;;;19.96;29.88
40918;BME280;26644;50.248;19.032;2023-05-12T13:40:33;98370.28;;;19.79;30.56
40918;BME280;26644;50.248;19.032;2023-05-12T13:43:38;98368.06;;;19.51;30.55
40918;BME280;26644;50.248;19.032;2023-05-12T13:46:44;98365.78;;;19.32;30.61
40918;BME280;26644;50.248;19.032;2023-05-12T13:49:48;98354.81;;;19.26;31.03
40918;BME280;26644;50.248;19.032;2023-05-12T13:52:54;98353.38;;;19.20;31.12
40918;BME280;26644;50.248;19.032;2023-05-12T13:56:01;98350.78;;;19.15;31.36
40918;BME280;26644;50.248;19.032;2023-05-12T13:59:06;98346.66;;;19.21;31.54
40918;BME280;26644;50.248;19.032;2023-05-12T14:02:11;98360.38;;;19.26;31.77
40918;BME280;26644;50.248;19.032;2023-05-12T14:05:16;98352.91;;;19.39;31.89
40918;BME280;26644;50.248;19.032;2023-05-12T14:08:21;98347.69;;;19.38;31.70
40918;BME280;26644;50.248;19.032;2023-05-12T14:11:32;98356.59;;;19.52;32.28
40918;BME280;26644;50.248;19.032;2023-05-12T14:14:37;98363.03;;;19.23;32.37
40918;BME280;26644;50.248;19.032;2023-05-12T14:17:47;98343.97;;;19.34;32.06
40918;BME280;26644;50.248;19.032;2023-05-12T14:20:52;98335.78;;;19.29;32.21
40918;BME280;26644;50.248;19.032;2023-05-12T14:23:57;98340.91;;;19.26;32.13
40918;BME280;26644;50.248;19.032;2023-05-12T14:27:05;98352.13;;;19.39;31.82
40918;BME280;26644;50.248;19.032;2023-05-12T14:30:11;98349.53;;;19.55;31.39
40918;BME280;26644;50.248;19.032;2023-05-12T14:33:16;98355.44;;;19.53;31.33
40918;BME280;26644;50.248;19.032;2023-05-12T14:36:21;98345.19;;;19.45;31.54
40918;BME280;26644;50.248;19.032;2023-05-12T14:39:26;98345.94;;;19.33;31.70
40918;BME280;26644;50.248;19.032;2023-05-12T14:42:33;98346.56;;;19.39;31.88
40918;BME280;26644;50.248;19.032;2023-05-12T14:45:38;98350.63;;;19.41;31.82
40918;BME280;26644;50.248;19.032;2023-05-12T14:48:43;98340.41;;;19.24;31.92
40918;BME280;26644;50.248;19.032;2023-05-12T14:51:48;98345.97;;;19.24;32.00
40918;BME280;26644;50.248;19.032;2023-05-12T14:54:54;98363.69;;;18.99;31.86
40918;BME280;26644;50.248;19.032;2023-05-12T14:58:01;98360.91;;;18.99;31.92
40918;BME280;26644;50.248;19.032;2023-05-12T15:01:06;98355.72;;;18.88;31.87
40918;BME280;26644;50.248;19.032;2023-05-12T15:04:10;98353.91;;;18.92;31.93
40918;BME280;26644;50.248;19.032;2023-05-12T15:07:15;98340.22;;;19.08;31.96
40918;BME280;26644;50.248;19.032;2023-05-12T15:10:20;98346.19;;;19.19;31.86
40918;BME280;26644;50.248;19.032;2023-05-12T15:13:28;98344.03;;;19.25;31.96
40918;BME280;26644;50.248;19.032;2023-05-12T15:16:32;98341.56;;;19.23;31.85
40918;BME280;26644;50.248;19.032;2023-05-12T15:19:37;98359.91;;;19.24;31.65
40918;BME280;26644;50.248;19.032;2023-05-12T15:22:42;98353.72;;;19.19;31.57
40918;BME280;26644;50.248;19.032;2023-05-12T15:25:47;98375.31;;;19.22;30.85
40918;BME280;26644;50.248;19.032;2023-05-12T15:28:54;98361.19;;;19.06;30.58
40918;BME280;26644;50.248;19.032;2023-05-12T15:32:01;98366.81;;;18.97;30.54
40918;BME280;26644;50.248;19.032;2023-05-12T15:35:07;98361.44;;;18.92;30.72
40918;BME280;26644;50.248;19.032;2023-05-12T15:38:13;98363.94;;;18.85;30.91
40918;BME280;26644;50.248;19.032;2023-05-12T15:41:17;98365.59;;;18.77;31.16
40918;BME280;26644;50.248;19.032;2023-05-12T15:44:25;98362.16;;;18.50;30.99
40918;BME280;26644;50.248;19.032;2023-05-12T15:47:30;98355.16;;;18.35;31.27
40918;BME280;26644;50.248;19.032;2023-05-12T15:50:35;98351.38;;;18.49;31.20
40918;BME280;26644;50.248;19.032;2023-05-12T15:53:40;98359.53;;;18.54;31.29
40918;BME280;26644;50.248;19.032;2023-05-12T15:56:47;98354.66;;;18.42;31.42
40918;BME280;26644;50.248;19.032;2023-05-12T15:59:58;98367.38;;;18.52;31.20
40918;BME280;26644;50.248;19.032;2023-05-12T16:03:14;98352.81;;;18.55;30.96
40918;BME280;26644;50.248;19.032;2023-05-12T16:06:19;98352.34;;;18.44;30.66
40918;BME280;26644;50.248;19.032;2023-05-12T16:09:25;98351.97;;;18.54;30.97
40918;BME280;26644;50.248;19.032;2023-05-12T16:12:29;98357.09;;;18.43;30.97
40918;BME280;26644;50.248;19.032;2023-05-12T16:15:37;98351.09;;;18.41;30.90